Station: Hunters Hill  

  Atmospheric Gas Attenuation - ITU Rec 676-11   ----------------- dB/100km -----------------
Date Time Temp RH % AH g/m3 Dew Point Wind Direction Speed kph Gust kph Barometer mB Rainfall Since 9am 24GHz 47GHz 76GHz 122GHz 134GHz 241GHz
08/05 12:30 6.3 99 7.33 6.2 9 19 1013.1 0.2 17.2 26.0 38.3 100.3 90.3 309.2
08/05 12:20 6.1 99 7.24 5.9 11 13 1013.1 0.2 17.0 25.9 38.0 99.5 89.3 305.6
08/05 12:10 5.9 99 7.14 5.7 7 9 1013.1 0.2 16.8 25.8 37.6 98.6 88.1 301.5
08/05 12:00 6.1 99 7.24 6 11 20 1013.1 0.2 17.0 25.9 38.0 99.5 89.3 305.6
08/05 11:50 6 99 7.19 5.8 13 17 1013.1 0.2 16.9 25.8 37.8 99.1 88.7 303.6
08/05 11:40 5.7 99 7.05 5.5 7 9 1013.1 0.2 16.6 25.7 37.4 97.9 87.1 297.9
08/05 11:30 5.8 99 7.1 5.7 4 7 1013.1 0.2 16.7 25.7 37.5 98.3 87.7 299.9
08/05 11:20 5.8 99 7.1 5.6 6 7 1013.1 0 16.7 25.7 37.5 98.3 87.7 299.9
08/05 11:10 5.7 99 7.05 5.5 7 13 1013.1 0 16.6 25.7 37.4 97.9 87.1 297.9
08/05 11:00 5.8 99 7.1 5.7 9 19 1013.1 0 16.7 25.7 37.5 98.3 87.7 299.9
08/05 10:50 5.9 99 7.14 5.7 11 13 1013.1 0 16.8 25.8 37.6 98.6 88.1 301.5
08/05 10:40 5.4 99 6.91 5.2 11 15 1013.1 0 16.3 25.5 36.9 96.7 85.5 292.2
08/05 10:30 5.3 99 6.87 5.2 9 15 1013.1 0 16.3 25.5 36.8 96.3 85.1 290.6
08/05 10:20 5.4 99 6.91 5.2 6 7 1013.1 0 16.3 25.5 36.9 96.7 85.5 292.2
08/05 10:10 5.3 99 6.87 5.1 6 7 1013.1 0 16.3 25.5 36.8 96.3 85.1 290.6
08/05 10:00 5.1 99 6.78 5 9 19 1013.1 0 16.1 25.4 36.5 95.6 84.0 287.0
08/05 09:50 5.1 99 6.78 4.9 9 15 1013.1 0 16.1 25.4 36.5 95.6 84.0 287.0
08/05 09:40 5.2 99 6.82 5 7 11 1013.1 0 16.1 25.4 36.6 95.9 84.5 288.6
08/05 09:30 5 99 6.73 4.9 9 20 1013.1 0 16.0 25.3 36.3 95.1 83.5 284.9
08/05 09:20 4.8 99 6.64 4.6 9 13 1013.1 0 15.8 25.2 36.1 94.4 82.4 281.3
08/05 09:10 4.7 99 6.6 4.5 13 20 1013.1 0 15.7 25.2 35.9 94.0 82.0 279.7
08/05 09:00 4.6 99 6.56 4.5 7 19 1013.1 0 15.6 25.2 35.8 93.7 81.5 278.1
08/05 08:50 4.5 99 6.51 4.3 15 20 1013.1 0.4 15.5 25.1 35.6 93.3 80.9 276.1
08/05 08:40 4.5 99 6.51 4.3 11 17 1013.1 0.4 15.5 25.1 35.6 93.3 80.9 276.1
08/05 08:30 4.4 99 6.47 4.3 15 26 1013.1 0.4 15.4 25.1 35.5 93.0 80.5 274.5
08/05 08:20 4.4 99 6.47 4.2 9 11 1013.1 0.4 15.4 25.1 35.5 93.0 80.5 274.5
08/05 08:10 4.3 99 6.43 4.1 11 13 1013.1 0.4 15.3 25.0 35.4 92.6 80.0 272.9
08/05 08:00 4.2 99 6.38 4.1 15 24 1013.1 0.4 15.2 25.0 35.2 92.2 79.5 270.8
08/05 07:50 4.2 99 6.38 4 13 17 1013.1 0.4 15.2 25.0 35.2 92.2 79.5 270.8
08/05 07:40 4.1 99 6.34 3.9 17 30 1013.1 0.4 15.2 24.9 35.1 91.9 79.0 269.2
08/05 07:30 4.1 99 6.34 4 15 26 1013.1 0.4 15.2 24.9 35.1 91.9 79.0 269.2
08/05 07:20 4 99 6.3 3.8 13 22 1013.1 0.4 15.1 24.9 35.0 91.5 78.6 267.6
08/05 07:10 3.9 99 6.26 3.7 19 22 1013.1 0.4 15.0 24.9 34.9 91.2 78.1 266.0
08/05 07:00 3.9 99 6.26 3.8 15 33 1013.1 0.4 15.0 24.9 34.9 91.2 78.1 266.0
08/05 06:50 3.9 99 6.26 3.7 13 17 1013.1 0.4 15.0 24.9 34.9 91.2 78.1 266.0
08/05 06:40 3.8 99 6.22 3.6 20 28 1013.1 0.4 14.9 24.8 34.7 90.9 77.7 264.4
08/05 06:30 3.8 99 6.22 3.7 15 24 1013.1 0.4 14.9 24.8 34.7 90.9 77.7 264.4
08/05 06:20 3.7 99 6.17 3.5 15 19 1013.1 0.4 14.8 24.8 34.6 90.4 77.1 262.4
08/05 06:10 3.7 99 6.17 3.5 9 11 1013.1 0.4 14.8 24.8 34.6 90.4 77.1 262.4
08/05 06:00 3.7 99 6.17 3.6 11 20 1013.1 0.4 14.8 24.8 34.6 90.4 77.1 262.4
08/05 05:50 3.7 99 6.17 3.5 4 7 1013.1 0.4 14.8 24.8 34.6 90.4 77.1 262.4
08/05 05:40 3.6 99 6.13 3.4 9 17 1013.1 0.4 14.7 24.7 34.5 90.1 76.6 260.8
08/05 05:30 3.6 99 6.13 3.5 13 24 1013.1 0.4 14.7 24.7 34.5 90.1 76.6 260.8
08/05 05:20 3.6 99 6.13 3.4 11 15 1013.1 0.4 14.7 24.7 34.5 90.1 76.6 260.8
08/05 05:10 3.6 99 6.13 3.4 13 22 1013.1 0.4 14.7 24.7 34.5 90.1 76.6 260.8
08/05 05:00 3.5 99 6.09 3.4 11 24 1013.1 0.2 14.6 24.7 34.3 89.8 76.2 259.2
08/05 04:50 3.5 99 6.09 3.3 11 19 1013.1 0.2 14.6 24.7 34.3 89.8 76.2 259.2
08/05 04:40 3.5 99 6.09 3.3 11 15 1013.1 0.2 14.6 24.7 34.3 89.8 76.2 259.2
08/05 04:30 3.4 99 6.05 3.3 11 24 1013.1 0.2 14.6 24.6 34.2 89.4 75.7 257.6
08/05 04:20 3.4 99 6.05 3.2 9 13 1013.1 0.2 14.6 24.6 34.2 89.4 75.7 257.6
08/05 04:10 3.3 99 6.01 3.1 15 22 1013.1 0.2 14.5 24.6 34.1 89.1 75.3 256.0
08/05 04:00 3.3 98 5.95 3 11 24 1013.1 0.2 14.3 24.5 33.8 88.4 74.4 253.1
08/05 03:50 3.2 98 5.91 2.9 9 15 1013.1 0.2 14.3 24.5 33.7 88.1 74.0 251.5
08/05 03:40 3.2 98 5.91 2.9 15 22 1013.1 0.2 14.3 24.5 33.7 88.1 74.0 251.5
08/05 03:30 3.2 98 5.91 2.9 11 19 1013.1 0.2 14.3 24.5 33.7 88.1 74.0 251.5
08/05 03:20 3.1 98 5.87 2.8 15 19 1013.1 0.2 14.2 24.4 33.6 87.8 73.5 249.9
08/05 03:10 3.1 98 5.87 2.8 7 9 1013.1 0.2 14.2 24.4 33.6 87.8 73.5 249.9
08/05 03:00 3 98 5.83 2.7 7 15 1013.1 0.2 14.1 24.4 33.5 87.4 73.1 248.3
08/05 02:50 3 98 5.83 2.7 9 9 1013.1 0.2 14.1 24.4 33.5 87.4 73.1 248.3
08/05 02:40 3 98 5.83 2.7 9 11 1013.1 0.2 14.1 24.4 33.5 87.4 73.1 248.3
08/05 02:30 3 98 5.83 2.7 9 20 1013.1 0.2 14.1 24.4 33.5 87.4 73.1 248.3
08/05 02:20 2.9 98 5.79 2.6 13 20 1013.1 0.2 14.0 24.3 33.3 87.1 72.6 246.6
08/05 02:10 2.9 98 5.79 2.6 11 17 1013.1 0.2 14.0 24.3 33.3 87.1 72.6 246.6
08/05 02:00 2.9 98 5.79 2.6 9 17 1013.1 0.2 14.0 24.3 33.3 87.1 72.6 246.6
08/05 01:50 2.9 98 5.79 2.6 6 7 1013.1 0.2 14.0 24.3 33.3 87.1 72.6 246.6
08/05 01:40 2.8 98 5.75 2.5 11 17 1013.1 0.2 13.9 24.3 33.2 86.8 72.2 245.0
08/05 01:30 2.8 98 5.75 2.5 7 13 1013.1 0.2 13.9 24.3 33.2 86.8 72.2 245.0
08/05 01:20 2.7 98 5.72 2.4 6 9 1013.1 0.2 13.9 24.3 33.1 86.5 71.8 243.9
08/05 01:10 2.7 98 5.72 2.4 9 11 1013.1 0.2 13.9 24.3 33.1 86.5 71.8 243.9
08/05 01:00 2.7 98 5.72 2.4 11 22 1013.1 0.2 13.9 24.3 33.1 86.5 71.8 243.9
08/05 00:50 2.7 98 5.72 2.4 9 17 1013.1 0.2 13.9 24.3 33.1 86.5 71.8 243.9
08/05 00:40 2.7 98 5.72 2.4 7 9 1013.1 0.2 13.9 24.3 33.1 86.5 71.8 243.9
08/05 00:30 2.7 98 5.72 2.4 13 24 1013.1 0.2 13.9 24.3 33.1 86.5 71.8 243.9
08/05 00:20 2.6 98 5.68 2.3 11 17 1013.1 0.2 13.8 24.2 33.0 86.2 71.4 242.3
08/05 00:10 2.6 98 5.68 2.3 15 19 1013.1 0.2 13.8 24.2 33.0 86.2 71.4 242.3
08/05 00:00 2.5 98 5.64 2.2 11 22 1013.1 0.2 13.7 24.2 32.9 85.9 70.9 240.7
07/05 23:50 2.5 98 5.64 2.2 9 11 1013.1 0.2 13.7 24.2 32.9 85.9 70.9 240.7
07/05 23:40 2.5 98 5.64 2.2 11 15 1013.1 0.2 13.7 24.2 32.9 85.9 70.9 240.7
07/05 23:30 2.4 97 5.54 2 13 26 1013.1 0.2 13.5 24.1 32.5 84.9 69.7 236.2
07/05 23:20 2.4 96 5.49 1.9 9 13 1013.1 0.2 13.4 24.0 32.3 84.3 69.0 233.8
07/05 23:10 2.4 96 5.49 1.9 9 13 1013.1 0.2 13.4 24.0 32.3 84.3 69.0 233.8
07/05 23:00 2.4 97 5.54 2 13 26 1013.1 0.2 13.5 24.1 32.5 84.9 69.7 236.2
07/05 22:50 2.4 96 5.49 1.9 9 15 1013.1 0.2 13.4 24.0 32.3 84.3 69.0 233.8
07/05 22:40 2.4 96 5.49 1.9 11 17 1013.1 0.2 13.4 24.0 32.3 84.3 69.0 233.8
07/05 22:30 2.4 97 5.54 2 11 20 1013.1 0.2 13.5 24.1 32.5 84.9 69.7 236.2
07/05 22:20 2.4 96 5.49 1.8 7 11 1013.1 0.2 13.4 24.0 32.3 84.3 69.0 233.8
07/05 22:10 2.3 96 5.45 1.7 11 19 1013.1 0.2 13.3 23.9 32.2 84.0 68.5 232.2
07/05 22:00 2.3 96 5.45 1.7 11 22 1013.1 0.2 13.3 23.9 32.2 84.0 68.5 232.2
07/05 21:50 2.3 96 5.45 1.7 13 19 1013.1 0.2 13.3 23.9 32.2 84.0 68.5 232.2
07/05 21:40 2.2 94 5.3 1.4 9 11 1013.1 0.2 13.0 23.7 31.6 82.4 66.6 225.3
07/05 21:30 2.2 95 5.36 1.5 13 24 1013.1 0.2 13.1 23.8 31.8 83.1 67.4 228.2
07/05 21:20 2.1 94 5.26 1.2 13 19 1013.1 0.2 12.9 23.7 31.5 82.1 66.1 223.7
07/05 21:10 2.1 94 5.26 1.2 13 17 1013.1 0.2 12.9 23.7 31.5 82.1 66.1 223.7
07/05 21:00 2 95 5.28 1.3 11 22 1013.1 0.2 12.9 23.7 31.6 82.4 66.5 224.9
07/05 20:50 1.9 94 5.19 1.1 11 15 1013.1 0.2 12.7 23.6 31.3 81.6 65.3 220.9
07/05 20:40 1.8 94 5.16 1 7 11 1013.1 0.2 12.7 23.6 31.2 81.3 65.0 219.8
07/05 20:30 1.7 95 5.18 1 9 17 1013.1 0.2 12.7 23.6 31.3 81.7 65.4 221.0
07/05 20:20 1.7 94 5.12 0.8 9 13 1013.1 0.2 12.6 23.6 31.1 81.0 64.5 218.2
07/05 20:10 1.7 94 5.12 0.8 13 15 1013.1 0.2 12.6 23.6 31.1 81.0 64.5 218.2
07/05 20:00 1.6 94 5.09 0.7 13 20 1013.1 0.2 12.5 23.5 31.0 80.8 64.2 217.0

Last Refresh: 08-May-2026 12:08:18

Bureau of Meteorology